Time;durP1;ratioP1;P1;durP2;ratioP2;P2;SDS_P1;SDS_P2;PMS_P1;PMS_P2;Temp;Humidity;BMP_temperature;BMP_pressure;BME280_temperature;BME280_humidity;BME280_pressure;Samples;Min_cycle;Max_cycle;Signal;HPM_P1;HPM_P2
2021/08/28 00:00:00;;;;;;;2.97;2.00;;;14.60;99.90;;;;;;5053226;28;20059;-76
2021/08/28 00:02:26;;;;;;;5.22;2.45;;;14.60;99.90;;;;;;5054440;28;20881;-77
2021/08/28 00:04:52;;;;;;;3.60;2.10;;;14.70;99.90;;;;;;5056852;28;20028;-76
2021/08/28 00:07:18;;;;;;;3.58;2.60;;;14.60;99.90;;;;;;5056251;28;20029;-76
2021/08/28 00:09:43;;;;;;;3.17;2.20;;;14.60;99.90;;;;;;5052154;28;20207;-77
2021/08/28 00:12:09;;;;;;;3.22;2.30;;;14.60;99.90;;;;;;5052153;28;20066;-76
2021/08/28 00:14:35;;;;;;;2.90;1.95;;;14.50;99.90;;;;;;5051776;28;20544;-74
2021/08/28 00:17:00;;;;;;;2.63;1.73;;;14.50;99.90;;;;;;5053137;28;20025;-76
2021/08/28 00:19:26;;;;;;;2.83;1.40;;;14.50;99.90;;;;;;5052922;28;20099;-77
2021/08/28 00:21:51;;;;;;;3.25;1.85;;;14.60;99.90;;;;;;5051946;28;20029;-78
2021/08/28 00:24:17;;;;;;;3.08;1.73;;;14.50;99.90;;;;;;5051777;28;20534;-78
2021/08/28 00:26:43;;;;;;;3.38;1.83;;;14.50;99.90;;;;;;5052563;28;20033;-76
2021/08/28 00:29:08;;;;;;;2.70;1.58;;;14.50;99.90;;;;;;5052625;28;20025;-76
2021/08/28 00:31:34;;;;;;;3.60;1.63;;;14.50;99.90;;;;;;5053015;28;20103;-77
2021/08/28 00:33:59;;;;;;;3.03;1.98;;;14.50;99.90;;;;;;5051760;28;20021;-77
2021/08/28 00:36:25;;;;;;;2.53;2.17;;;14.50;99.90;;;;;;5051693;28;20037;-76
2021/08/28 00:38:51;;;;;;;3.35;1.80;;;14.60;99.90;;;;;;5053232;28;20456;-76
2021/08/28 00:41:16;;;;;;;1.50;1.40;;;14.60;99.90;;;;;;5054423;28;20028;-76
2021/08/28 00:43:42;;;;;;;3.20;1.95;;;14.50;99.90;;;;;;5056359;28;20029;-75
2021/08/28 00:46:08;;;;;;;2.33;1.70;;;14.50;99.90;;;;;;5045114;28;20113;-76
2021/08/28 00:48:33;;;;;;;2.80;1.65;;;14.50;99.90;;;;;;5054681;28;20059;-75
2021/08/28 00:50:59;;;;;;;4.43;1.80;;;14.50;99.90;;;;;;5055447;28;20021;-75
2021/08/28 00:53:24;;;;;;;3.15;1.75;;;14.50;99.90;;;;;;5052778;28;20059;-75
2021/08/28 00:55:52;;;;;;;3.13;1.70;;;14.50;99.90;;;;;;5053358;28;20014;-75
2021/08/28 00:58:19;;;;;;;3.65;1.63;;;14.40;99.90;;;;;;5051231;28;20028;-76
2021/08/28 01:00:53;;;;;;;4.38;1.95;;;14.40;99.90;;;;;;5051805;28;20468;-76
2021/08/28 01:03:24;;;;;;;6.78;2.05;;;14.50;99.90;;;;;;5053064;28;20029;-77
2021/08/28 01:05:59;;;;;;;3.05;1.73;;;14.50;99.90;;;;;;5051784;28;20519;-75
2021/08/28 01:08:44;;;;;;;1.90;1.67;;;14.50;99.90;;;;;;5052971;28;20039;-75
2021/08/28 01:11:12;;;;;;;2.72;2.17;;;14.40;99.90;;;;;;5052560;28;20029;-76
2021/08/28 01:13:40;;;;;;;3.13;1.60;;;14.40;99.90;;;;;;5052387;28;20036;-75
2021/08/28 01:16:08;;;;;;;3.30;1.67;;;14.50;99.90;;;;;;5052538;28;20059;-76
2021/08/28 01:18:35;;;;;;;2.58;1.52;;;14.50;99.90;;;;;;5050721;28;20029;-76
2021/08/28 01:21:25;;;;;;;3.33;1.75;;;14.40;99.90;;;;;;5050483;28;20025;-75
2021/08/28 01:23:52;;;;;;;4.47;1.50;;;14.40;99.90;;;;;;5050332;28;20395;-74
2021/08/28 01:26:21;;;;;;;4.88;2.75;;;14.40;99.90;;;;;;5051103;28;20067;-76
2021/08/28 01:29:20;;;;;;;4.45;1.83;;;14.40;99.90;;;;;;5050164;28;20443;-76
2021/08/28 01:31:50;;;;;;;1.83;1.48;;;14.40;99.90;;;;;;5050963;28;20136;-75
2021/08/28 01:34:17;;;;;;;5.20;2.17;;;14.30;99.90;;;;;;5051493;28;20033;-75
2021/08/28 01:36:47;;;;;;;3.10;1.92;;;14.40;99.90;;;;;;5051980;28;20033;-73
2021/08/28 01:39:14;;;;;;;4.72;2.72;;;14.40;99.90;;;;;;5052904;28;20123;-75
2021/08/28 01:41:42;;;;;;;2.70;1.98;;;14.40;99.90;;;;;;5054785;28;20025;-78
2021/08/28 01:44:13;;;;;;;4.38;2.80;;;14.40;99.90;;;;;;5044613;28;20033;-77
2021/08/28 01:46:40;;;;;;;7.07;2.00;;;14.40;99.90;;;;;;5057160;28;20544;-75
2021/08/28 01:49:08;;;;;;;2.92;2.33;;;14.40;99.90;;;;;;5062318;28;20104;-76
2021/08/28 01:51:34;;;;;;;3.42;2.50;;;14.40;99.90;;;;;;5052348;28;20024;-76
2021/08/28 01:54:00;;;;;;;3.03;2.28;;;14.40;99.90;;;;;;5055182;28;20025;-75
2021/08/28 01:56:26;;;;;;;3.10;2.65;;;14.30;99.90;;;;;;5054315;28;20039;-74
2021/08/28 01:58:53;;;;;;;2.47;2.13;;;14.40;99.90;;;;;;5051855;28;20032;-75
2021/08/28 02:01:19;;;;;;;3.63;2.42;;;14.30;99.90;;;;;;5054470;28;20086;-77
2021/08/28 02:03:44;;;;;;;3.20;2.90;;;14.40;99.90;;;;;;5053899;28;20029;-76
2021/08/28 02:06:25;;;;;;;2.70;2.40;;;14.30;99.90;;;;;;5051262;28;20029;-76
2021/08/28 02:09:01;;;;;;;4.55;3.45;;;14.30;99.90;;;;;;5049974;28;20112;-77
2021/08/28 02:11:43;;;;;;;3.72;3.28;;;14.30;99.90;;;;;;5051744;28;20025;-75
2021/08/28 02:14:17;;;;;;;6.78;3.95;;;14.30;99.90;;;;;;5049677;28;20021;-75
2021/08/28 02:16:45;;;;;;;4.15;3.60;;;14.30;99.90;;;;;;5055859;28;20025;-76
2021/08/28 02:19:25;;;;;;;5.05;3.60;;;14.30;99.90;;;;;;5054778;28;20054;-76
2021/08/28 02:21:53;;;;;;;4.93;4.50;;;14.30;99.90;;;;;;5055598;28;20114;-76
2021/08/28 02:24:26;;;;;;;4.95;3.88;;;14.30;99.90;;;;;;5055302;28;20361;-78
2021/08/28 02:27:19;;;;;;;5.25;4.22;;;14.30;99.90;;;;;;5053366;28;20037;-76
2021/08/28 02:29:58;;;;;;;6.25;4.78;;;14.20;99.90;;;;;;5054703;28;20388;-74
2021/08/28 02:32:24;;;;;;;8.35;5.45;;;14.20;99.90;;;;;;5054221;28;20429;-76
2021/08/28 02:34:53;;;;;;;5.55;4.50;;;14.20;99.90;;;;;;5054529;28;20031;-76
2021/08/28 02:37:20;;;;;;;8.38;5.45;;;14.10;99.90;;;;;;5054905;28;20392;-75
2021/08/28 02:39:47;;;;;;;6.40;5.72;;;14.10;99.90;;;;;;5054664;28;20444;-76
2021/08/28 02:42:15;;;;;;;5.35;4.95;;;14.10;99.90;;;;;;5054827;28;20068;-77
2021/08/28 02:44:43;;;;;;;6.28;5.38;;;14.20;99.90;;;;;;5054812;28;20025;-76
2021/08/28 02:47:11;;;;;;;6.13;5.53;;;14.20;99.90;;;;;;5053639;28;20021;-76
2021/08/28 02:49:39;;;;;;;7.75;5.30;;;14.10;99.90;;;;;;5069443;28;20051;-76
2021/08/28 02:52:06;;;;;;;6.93;5.90;;;14.10;99.90;;;;;;5054436;28;20161;-76
2021/08/28 02:54:33;;;;;;;8.52;6.63;;;14.10;99.90;;;;;;5054531;28;20020;-76
2021/08/28 02:57:00;;;;;;;7.72;6.10;;;14.10;99.90;;;;;;5086531;28;20439;-77
2021/08/28 02:59:27;;;;;;;7.88;6.78;;;14.10;99.90;;;;;;5054084;28;20028;-76
2021/08/28 03:01:53;;;;;;;7.72;6.57;;;14.20;99.90;;;;;;5054689;28;20040;-77
2021/08/28 03:04:22;;;;;;;9.63;7.90;;;14.10;99.90;;;;;;5053975;28;20025;-75
2021/08/28 03:06:49;;;;;;;9.18;7.15;;;14.00;99.90;;;;;;5054322;28;20029;-76
2021/08/28 03:09:17;;;;;;;9.20;8.40;;;14.00;99.90;;;;;;5054004;28;20029;-77
2021/08/28 03:11:45;;;;;;;9.43;8.07;;;14.00;99.90;;;;;;5054463;28;20021;-76
2021/08/28 03:14:11;;;;;;;10.57;9.57;;;14.00;99.90;;;;;;5054345;28;20052;-77
2021/08/28 03:16:43;;;;;;;9.23;8.23;;;14.10;99.90;;;;;;5054207;28;20036;-77
2021/08/28 03:19:10;;;;;;;10.38;8.30;;;14.10;99.90;;;;;;5052378;28;20032;-76
2021/08/28 03:21:38;;;;;;;15.82;9.27;;;14.00;99.90;;;;;;5053973;28;20581;-76
2021/08/28 03:24:06;;;;;;;10.13;9.13;;;14.00;99.90;;;;;;5052923;28;20029;-75
2021/08/28 03:26:32;;;;;;;10.88;9.77;;;14.00;99.90;;;;;;5053749;28;20039;-75
2021/08/28 03:28:58;;;;;;;9.73;8.73;;;13.90;99.90;;;;;;5053913;28;20025;-77
2021/08/28 03:31:25;;;;;;;10.65;9.65;;;13.90;99.90;;;;;;5053725;28;20087;-76
2021/08/28 03:33:57;;;;;;;11.05;9.90;;;14.00;99.90;;;;;;5053899;28;20024;-77
2021/08/28 03:36:24;;;;;;;11.45;10.35;;;14.00;99.90;;;;;;5052304;28;20040;-75
2021/08/28 03:38:50;;;;;;;11.90;10.43;;;14.00;99.90;;;;;;5053528;28;20508;-77
2021/08/28 03:41:17;;;;;;;11.35;10.25;;;13.90;99.90;;;;;;5053738;28;20064;-77
2021/08/28 03:43:46;;;;;;;12.93;10.68;;;14.00;99.90;;;;;;5053811;28;20025;-76
2021/08/28 03:46:13;;;;;;;13.65;10.38;;;13.90;99.90;;;;;;5046252;28;20017;-77
2021/08/28 03:48:40;;;;;;;12.07;10.30;;;14.00;99.90;;;;;;5058959;28;20031;-76
2021/08/28 03:51:06;;;;;;;14.13;10.70;;;14.00;99.90;;;;;;5051843;28;20063;-76
2021/08/28 03:53:32;;;;;;;11.30;10.18;;;14.00;99.90;;;;;;5052418;28;20428;-77
2021/08/28 03:55:58;;;;;;;11.20;10.10;;;14.00;99.90;;;;;;5056046;28;20032;-76
2021/08/28 03:58:25;;;;;;;10.57;9.55;;;14.10;99.90;;;;;;5064343;28;20020;-76
2021/08/28 04:00:51;;;;;;;12.82;11.45;;;14.10;99.90;;;;;;5069295;28;20037;-75
2021/08/28 04:03:17;;;;;;;11.02;10.02;;;14.00;99.90;;;;;;5053901;28;20033;-76
2021/08/28 04:05:42;;;;;;;11.40;9.40;;;14.00;99.90;;;;;;5052706;28;20075;-76
2021/08/28 04:08:08;;;;;;;12.60;11.07;;;14.00;99.90;;;;;;5053205;28;20071;-76
2021/08/28 04:10:34;;;;;;;18.08;13.38;;;14.00;99.90;;;;;;5051949;28;20473;-76
2021/08/28 04:12:59;;;;;;;13.40;12.05;;;14.00;99.90;;;;;;5051670;28;20021;-76
2021/08/28 04:15:25;;;;;;;13.68;11.88;;;14.00;99.90;;;;;;5052411;28;20021;-77
2021/08/28 04:17:50;;;;;;;14.02;12.82;;;14.00;99.90;;;;;;5053224;28;20086;-76
2021/08/28 04:20:16;;;;;;;12.85;11.60;;;13.90;99.90;;;;;;5052871;28;20060;-75
2021/08/28 04:22:41;;;;;;;14.25;12.52;;;13.90;99.90;;;;;;5053189;28;20041;-76
2021/08/28 04:25:09;;;;;;;14.40;12.95;;;13.90;99.90;;;;;;5052573;28;20383;-76
2021/08/28 04:27:35;;;;;;;15.32;12.95;;;13.90;99.90;;;;;;5052824;28;20021;-76
2021/08/28 04:30:00;;;;;;;14.88;12.48;;;13.80;99.90;;;;;;5052354;28;20108;-76
2021/08/28 04:32:26;;;;;;;13.48;12.13;;;13.80;99.90;;;;;;5051394;28;20036;-75
2021/08/28 04:34:51;;;;;;;14.05;12.75;;;13.80;99.90;;;;;;5052432;28;20025;-76
2021/08/28 04:37:17;;;;;;;14.60;13.10;;;13.80;99.90;;;;;;5051329;28;20056;-76
2021/08/28 04:39:43;;;;;;;14.80;13.27;;;13.80;99.90;;;;;;5051105;28;20025;-76
2021/08/28 04:42:08;;;;;;;14.70;11.80;;;13.80;99.90;;;;;;5051272;28;20043;-76
2021/08/28 04:44:34;;;;;;;15.90;12.70;;;13.80;99.90;;;;;;5052089;28;20060;-75
2021/08/28 04:46:59;;;;;;;14.13;11.90;;;13.80;99.90;;;;;;5057473;28;20048;-76
2021/08/28 04:49:25;;;;;;;15.88;13.13;;;13.80;99.90;;;;;;5061895;28;20037;-80
2021/08/28 04:51:51;;;;;;;14.43;12.20;;;13.80;99.90;;;;;;5052612;28;20021;-78
2021/08/28 04:54:16;;;;;;;12.63;11.45;;;13.80;99.90;;;;;;5050766;28;20025;-76
2021/08/28 04:56:42;;;;;;;14.85;12.40;;;13.80;99.90;;;;;;5052239;28;20106;-77
2021/08/28 04:59:07;;;;;;;14.40;12.98;;;13.70;99.90;;;;;;5050393;28;20025;-76
2021/08/28 05:01:33;;;;;;;13.90;12.57;;;13.80;99.90;;;;;;5051733;28;20516;-77
2021/08/28 05:03:58;;;;;;;17.38;14.88;;;13.80;99.90;;;;;;5051172;28;20384;-77
2021/08/28 05:06:24;;;;;;;15.82;14.23;;;13.80;99.90;;;;;;5051933;28;20043;-78
2021/08/28 05:08:50;;;;;;;15.63;14.00;;;13.80;99.90;;;;;;5051532;28;20404;-75
2021/08/28 05:11:15;;;;;;;16.85;14.40;;;13.80;99.90;;;;;;5050754;28;20025;-77
2021/08/28 05:13:41;;;;;;;15.63;13.70;;;13.90;99.90;;;;;;5051413;28;20024;-76
2021/08/28 05:16:06;;;;;;;18.67;14.25;;;13.90;99.90;;;;;;5051838;28;20027;-76
2021/08/28 05:18:32;;;;;;;15.48;13.88;;;13.90;99.90;;;;;;5051646;28;20029;-76
2021/08/28 05:20:58;;;;;;;16.15;13.98;;;13.90;99.90;;;;;;5051598;28;20024;-76
2021/08/28 05:23:23;;;;;;;18.90;14.18;;;13.90;99.90;;;;;;5050505;28;20065;-75
2021/08/28 05:25:49;;;;;;;16.45;14.38;;;14.00;99.90;;;;;;5050116;28;20044;-77
2021/08/28 05:28:15;;;;;;;17.50;13.20;;;14.00;99.90;;;;;;5050088;28;20392;-76
2021/08/28 05:30:40;;;;;;;13.27;11.98;;;14.00;99.90;;;;;;5050087;28;20067;-76
2021/08/28 05:33:06;;;;;;;14.13;12.77;;;14.10;99.90;;;;;;5051884;28;20021;-75
2021/08/28 05:35:31;;;;;;;13.93;12.48;;;14.00;99.90;;;;;;5051900;28;20028;-75
2021/08/28 05:37:57;;;;;;;15.23;13.68;;;14.20;99.90;;;;;;5050145;28;20484;-76
2021/08/28 05:40:23;;;;;;;15.85;13.98;;;14.20;99.90;;;;;;5051284;28;20032;-75
2021/08/28 05:42:48;;;;;;;13.75;12.10;;;14.10;99.90;;;;;;5051430;28;20025;-77
2021/08/28 05:45:14;;;;;;;14.75;12.98;;;14.20;99.90;;;;;;5050516;28;20392;-76
2021/08/28 05:47:39;;;;;;;13.55;12.15;;;14.30;99.90;;;;;;5057881;28;20153;-75
2021/08/28 05:50:06;;;;;;;14.20;12.13;;;14.30;99.90;;;;;;5077411;28;20025;-74
2021/08/28 05:52:34;;;;;;;14.77;11.82;;;14.30;99.90;;;;;;5061715;28;20037;-76
2021/08/28 05:54:59;;;;;;;13.90;12.60;;;14.40;99.90;;;;;;5053482;28;20028;-77
2021/08/28 05:57:25;;;;;;;12.75;11.55;;;14.40;99.90;;;;;;5050762;28;20060;-76
2021/08/28 05:59:50;;;;;;;12.85;11.40;;;14.50;99.90;;;;;;5049506;28;20048;-76
2021/08/28 06:02:16;;;;;;;12.05;10.95;;;14.50;99.90;;;;;;5052013;28;20033;-77
2021/08/28 06:04:42;;;;;;;12.70;11.50;;;14.50;99.90;;;;;;5060251;28;20041;-74
2021/08/28 06:07:08;;;;;;;12.02;10.93;;;14.50;99.90;;;;;;5058029;28;20028;-75
2021/08/28 06:09:34;;;;;;;12.35;11.25;;;14.30;99.90;;;;;;5058496;28;20033;-75
2021/08/28 06:11:59;;;;;;;12.57;11.38;;;14.30;99.90;;;;;;5058474;28;20029;-76
2021/08/28 06:14:25;;;;;;;13.18;11.88;;;14.30;99.90;;;;;;5060099;28;20030;-75
2021/08/28 06:16:50;;;;;;;12.70;11.23;;;14.40;99.90;;;;;;5050679;28;20025;-76
2021/08/28 06:19:16;;;;;;;11.80;10.55;;;14.50;99.90;;;;;;5050943;28;20021;-76
2021/08/28 06:21:42;;;;;;;15.38;10.65;;;14.50;99.90;;;;;;5051126;28;20413;-76
2021/08/28 06:24:08;;;;;;;10.98;9.60;;;14.60;99.90;;;;;;5051974;28;20028;-76
2021/08/28 06:26:33;;;;;;;10.77;9.70;;;14.70;99.90;;;;;;5050992;28;20036;-75
2021/08/28 06:28:59;;;;;;;11.75;10.68;;;14.60;99.90;;;;;;5050723;28;20037;-76
2021/08/28 06:31:25;;;;;;;15.32;8.95;;;14.60;99.90;;;;;;5049692;28;20029;-76
2021/08/28 06:33:50;;;;;;;10.55;9.50;;;14.80;99.90;;;;;;5050879;28;20076;-76
2021/08/28 06:36:16;;;;;;;11.55;9.55;;;14.80;99.90;;;;;;5051060;28;20025;-77
2021/08/28 06:38:41;;;;;;;10.27;9.38;;;14.80;99.90;;;;;;5050718;28;20106;-75
2021/08/28 06:41:07;;;;;;;10.90;9.27;;;14.60;99.90;;;;;;5050516;28;20032;-75
2021/08/28 06:43:32;;;;;;;9.85;8.88;;;14.60;99.90;;;;;;5049618;28;20032;-76
2021/08/28 06:45:58;;;;;;;10.45;8.85;;;14.60;99.90;;;;;;5044079;28;20059;-76
2021/08/28 06:48:24;;;;;;;10.82;9.02;;;14.60;99.90;;;;;;5055530;28;20037;-77
2021/08/28 06:50:49;;;;;;;9.43;8.57;;;14.50;99.90;;;;;;5049477;28;20021;-76
2021/08/28 06:53:16;;;;;;;9.93;9.02;;;14.50;99.90;;;;;;5051145;28;20056;-76
2021/08/28 06:55:42;;;;;;;10.32;9.43;;;14.60;99.90;;;;;;5051199;28;20025;-77
2021/08/28 06:58:08;;;;;;;10.57;9.27;;;14.70;99.90;;;;;;5049704;28;20036;-75
2021/08/28 07:00:34;;;;;;;9.77;8.85;;;14.70;99.90;;;;;;5053436;28;20395;-77
2021/08/28 07:02:59;;;;;;;10.35;9.30;;;14.80;99.90;;;;;;5054559;28;20583;-76
2021/08/28 07:05:25;;;;;;;10.30;9.18;;;14.90;99.90;;;;;;5053238;28;20029;-77
2021/08/28 07:07:51;;;;;;;10.68;9.57;;;14.90;99.90;;;;;;5054414;28;20053;-75
2021/08/28 07:10:17;;;;;;;10.57;9.68;;;15.10;99.90;;;;;;5052629;28;20108;-77
2021/08/28 07:12:43;;;;;;;10.02;9.15;;;15.10;99.90;;;;;;5053947;28;20083;-76
2021/08/28 07:15:10;;;;;;;10.45;9.35;;;15.50;99.90;;;;;;5053708;28;20484;-77
2021/08/28 07:17:35;;;;;;;9.52;8.73;;;15.50;99.90;;;;;;5052492;28;20021;-76
2021/08/28 07:20:02;;;;;;;8.73;7.97;;;15.30;99.90;;;;;;5052870;28;20477;-77
2021/08/28 07:22:28;;;;;;;9.35;8.35;;;15.30;99.90;;;;;;5062707;28;20404;-76
2021/08/28 07:24:54;;;;;;;10.50;8.27;;;15.40;99.90;;;;;;5058897;28;20025;-76
2021/08/28 07:27:23;;;;;;;9.32;6.72;;;15.40;99.90;;;;;;5052070;28;20037;-76
2021/08/28 07:29:50;;;;;;;8.50;7.80;;;15.40;99.90;;;;;;5051966;28;20028;-75
2021/08/28 07:32:16;;;;;;;7.80;7.03;;;15.50;99.90;;;;;;5052177;28;20057;-75
2021/08/28 07:34:41;;;;;;;6.25;5.68;;;15.70;99.90;;;;;;5052616;28;20053;-76
2021/08/28 07:37:07;;;;;;;5.10;4.65;;;15.80;99.90;;;;;;5052999;28;20096;-76
2021/08/28 07:39:33;;;;;;;5.38;4.88;;;15.80;99.90;;;;;;5073517;28;20055;-75
2021/08/28 07:41:59;;;;;;;7.80;5.15;;;15.60;99.90;;;;;;5060559;28;20432;-75
2021/08/28 07:44:25;;;;;;;8.75;5.50;;;15.60;99.90;;;;;;5052066;28;20028;-76
2021/08/28 07:46:50;;;;;;;10.25;5.60;;;15.50;99.90;;;;;;5051958;28;20029;-75
2021/08/28 07:49:16;;;;;;;7.55;5.55;;;15.40;99.90;;;;;;5058427;28;20060;-77
2021/08/28 07:51:42;;;;;;;7.38;5.40;;;15.60;99.90;;;;;;5052378;28;20025;-75
2021/08/28 07:54:08;;;;;;;5.53;4.97;;;15.60;99.90;;;;;;5057481;28;20073;-76
2021/08/28 07:56:33;;;;;;;5.00;4.60;;;15.70;99.90;;;;;;5055693;28;20039;-80
2021/08/28 07:58:59;;;;;;;4.65;4.25;;;15.50;99.90;;;;;;5063612;28;20035;-77
2021/08/28 08:01:24;;;;;;;8.23;4.57;;;15.60;99.90;;;;;;5053340;28;20033;-75
2021/08/28 08:03:50;;;;;;;5.03;4.60;;;15.90;99.90;;;;;;5051834;28;20515;-78
2021/08/28 08:06:16;;;;;;;4.80;4.40;;;16.20;99.90;;;;;;5058676;28;20032;-80
2021/08/28 08:08:41;;;;;;;4.10;3.78;;;17.00;99.90;;;;;;5056472;28;20028;-82
2021/08/28 08:11:07;;;;;;;3.88;3.58;;;17.20;99.90;;;;;;5058643;28;20107;-82
2021/08/28 08:13:33;;;;;;;6.25;3.95;;;16.70;99.90;;;;;;5060958;28;20073;-83
2021/08/28 08:15:58;;;;;;;3.70;3.35;;;16.20;99.90;;;;;;5055418;28;20531;-82
2021/08/28 08:18:24;;;;;;;4.28;3.70;;;15.90;99.90;;;;;;5058312;28;20045;-82
2021/08/28 08:20:50;;;;;;;3.47;3.17;;;15.80;99.90;;;;;;5059057;28;20051;-83
2021/08/28 08:23:15;;;;;;;2.67;2.47;;;16.00;99.90;;;;;;5056554;28;20088;-82
2021/08/28 08:25:41;;;;;;;3.22;2.75;;;16.30;99.90;;;;;;5057954;28;20459;-82
2021/08/28 08:28:06;;;;;;;3.90;2.92;;;16.50;99.90;;;;;;5057215;28;20032;-84
2021/08/28 08:30:32;;;;;;;3.53;3.22;;;16.50;99.90;;;;;;5054219;28;20096;-82
2021/08/28 08:32:58;;;;;;;3.53;2.92;;;16.70;99.90;;;;;;5057549;28;20017;-82
2021/08/28 08:35:23;;;;;;;3.88;2.50;;;16.40;99.90;;;;;;5057391;28;20045;-81
2021/08/28 08:37:49;;;;;;;5.25;2.97;;;16.70;99.90;;;;;;5058721;28;20024;-83
2021/08/28 08:40:15;;;;;;;2.63;2.42;;;17.10;99.90;;;;;;5056500;28;20399;-81
2021/08/28 08:42:42;;;;;;;2.67;2.30;;;17.20;99.90;;;;;;5056113;28;20025;-78
2021/08/28 08:45:09;;;;;;;2.28;2.08;;;17.10;99.90;;;;;;5054696;28;20029;-79
2021/08/28 08:47:36;;;;;;;2.17;1.98;;;16.90;99.90;;;;;;5058749;28;20029;-79
2021/08/28 08:50:04;;;;;;;2.90;2.55;;;17.00;99.90;;;;;;5060995;28;20028;-80
2021/08/28 08:52:31;;;;;;;2.75;1.90;;;17.20;99.90;;;;;;5058010;28;20029;-81
2021/08/28 08:54:57;;;;;;;3.05;1.80;;;17.00;99.90;;;;;;5062278;28;20025;-82
2021/08/28 08:57:23;;;;;;;2.53;2.33;;;16.90;99.90;;;;;;5064273;28;20441;-82
2021/08/28 08:59:49;;;;;;;2.35;2.03;;;16.80;99.90;;;;;;5058433;28;20037;-84
2021/08/28 09:02:14;;;;;;;2.05;1.90;;;16.60;99.90;;;;;;5059183;28;20040;-77
2021/08/28 09:04:40;;;;;;;2.45;2.25;;;16.80;99.90;;;;;;5062347;28;20025;-77
2021/08/28 09:07:06;;;;;;;2.35;2.15;;;16.80;99.90;;;;;;5055093;28;20059;-79
2021/08/28 09:09:31;;;;;;;3.13;2.75;;;16.80;99.90;;;;;;5058095;28;20054;-77
2021/08/28 09:12:01;;;;;;;3.65;2.30;;;16.80;99.90;;;;;;5055939;28;20167;-78
2021/08/28 09:14:28;;;;;;;1.90;1.80;;;17.00;99.90;;;;;;5064114;28;20025;-78
2021/08/28 09:16:54;;;;;;;2.75;2.08;;;17.10;99.90;;;;;;5060191;28;20447;-83
2021/08/28 09:19:35;;;;;;;2.00;1.90;;;17.20;99.90;;;;;;5059557;28;20033;-82
2021/08/28 09:22:04;;;;;;;2.20;1.90;;;16.90;99.90;;;;;;5059123;28;20033;-81
2021/08/28 09:24:41;;;;;;;1.73;1.63;;;17.10;99.90;;;;;;5057487;28;20029;-77
2021/08/28 09:27:07;;;;;;;1.60;1.50;;;17.00;99.90;;;;;;5068159;28;20059;-76
2021/08/28 09:29:32;;;;;;;1.60;1.48;;;16.90;99.90;;;;;;5081768;28;20037;-76
2021/08/28 09:31:58;;;;;;;1.30;1.20;;;16.80;99.90;;;;;;5057021;28;20112;-77
2021/08/28 09:34:28;;;;;;;1.67;1.50;;;16.90;99.90;;;;;;5054391;28;20044;-78
2021/08/28 09:37:02;;;;;;;2.92;1.73;;;17.00;99.90;;;;;;5057936;28;20055;-76
2021/08/28 09:39:41;;;;;;;2.42;1.33;;;16.70;99.90;;;;;;5052565;28;20025;-78
2021/08/28 09:42:08;;;;;;;1.13;1.13;;;16.60;99.90;;;;;;5054660;28;20028;-77
2021/08/28 09:44:42;;;;;;;1.95;1.85;;;16.50;99.90;;;;;;5053032;28;20029;-77
2021/08/28 09:47:16;;;;;;;1.80;1.30;;;16.10;99.90;;;;;;5052779;28;20040;-77
2021/08/28 09:49:44;;;;;;;1.35;1.17;;;16.10;99.90;;;;;;5047490;28;20090;-78
2021/08/28 09:52:18;;;;;;;1.35;1.25;;;16.10;99.90;;;;;;5053859;28;20040;-77
2021/08/28 09:54:43;;;;;;;1.70;1.60;;;16.10;99.90;;;;;;5051724;28;20021;-77
2021/08/28 09:57:09;;;;;;;1.30;1.20;;;16.30;99.90;;;;;;5054917;28;20017;-78
2021/08/28 09:59:35;;;;;;;1.40;1.30;;;15.90;99.90;;;;;;5057075;28;20024;-78
2021/08/28 10:02:11;;;;;;;1.35;1.25;;;15.80;99.90;;;;;;5053812;28;20029;-77
2021/08/28 10:04:48;;;;;;;2.65;1.95;;;15.90;99.90;;;;;;5052899;28;20025;-78
2021/08/28 10:07:28;;;;;;;1.80;1.40;;;15.80;99.90;;;;;;5052988;28;20076;-77
2021/08/28 10:09:59;;;;;;;1.65;1.20;;;16.10;99.90;;;;;;5053669;28;20029;-78
2021/08/28 10:12:25;;;;;;;2.40;1.00;;;16.10;99.90;;;;;;5051456;28;20029;-78
2021/08/28 10:14:55;;;;;;;1.55;1.45;;;16.10;99.90;;;;;;5051917;28;20079;-76
2021/08/28 10:17:22;;;;;;;1.40;1.23;;;16.10;99.90;;;;;;5051371;28;20036;-78
2021/08/28 10:19:52;;;;;;;1.58;1.35;;;16.10;99.90;;;;;;5052222;28;20082;-78
2021/08/28 10:22:23;;;;;;;1.77;1.50;;;16.30;99.90;;;;;;5050649;28;20033;-78
2021/08/28 10:24:54;;;;;;;1.70;1.40;;;16.10;99.90;;;;;;5052113;28;20025;-77
2021/08/28 10:27:26;;;;;;;;;;;16.20;99.90;;;;;;5050996;28;20036;-77
2021/08/28 10:29:53;;;;;;;1.98;1.80;;;15.90;99.90;;;;;;5052109;28;19913;-77
2021/08/28 10:32:20;;;;;;;2.22;1.75;;;16.10;99.90;;;;;;5052553;28;20025;-78
2021/08/28 10:34:48;;;;;;;3.35;1.50;;;16.10;99.90;;;;;;5053905;28;20079;-77
2021/08/28 10:37:13;;;;;;;2.83;1.75;;;16.00;99.90;;;;;;5055407;28;20067;-78
2021/08/28 10:39:40;;;;;;;1.40;1.30;;;15.70;99.90;;;;;;5055067;28;20032;-78
2021/08/28 10:42:08;;;;;;;1.73;1.30;;;15.70;99.90;;;;;;5056623;28;20056;-77
2021/08/28 10:44:34;;;;;;;1.42;1.30;;;16.10;99.90;;;;;;5056032;28;20480;-78
2021/08/28 10:47:05;;;;;;;1.40;1.30;;;15.90;99.90;;;;;;5057070;28;20057;-77
2021/08/28 10:49:31;;;;;;;1.52;1.42;;;16.10;99.90;;;;;;5054820;28;20025;-77
2021/08/28 10:51:57;;;;;;;1.58;1.10;;;16.50;99.90;;;;;;5055227;28;20506;-79
2021/08/28 10:54:29;;;;;;;1.52;1.35;;;16.80;99.90;;;;;;5055937;28;20530;-77
2021/08/28 10:57:01;;;;;;;1.02;0.93;;;17.20;99.90;;;;;;5054767;28;20025;-79
2021/08/28 10:59:32;;;;;;;3.20;1.50;;;16.70;99.90;;;;;;5055122;28;20028;-79
2021/08/28 11:02:10;;;;;;;4.78;1.33;;;16.60;99.90;;;;;;5058339;28;20036;-79
2021/08/28 11:04:42;;;;;;;0.70;0.70;;;16.60;99.90;;;;;;5055950;28;20575;-78
2021/08/28 11:07:29;;;;;;;0.73;0.70;;;17.10;99.90;;;;;;5054763;28;20032;-77
2021/08/28 11:10:07;;;;;;;1.73;1.63;;;17.70;99.90;;;;;;5054290;28;20029;-76
2021/08/28 11:13:00;;;;;;;1.00;0.80;;;17.50;99.90;;;;;;5056696;28;20112;-79
2021/08/28 11:15:45;;;;;;;0.82;0.82;;;18.60;99.90;;;;;;5076965;28;20041;-76
2021/08/28 11:18:35;;;;;;;2.88;1.10;;;19.40;99.90;;;;;;5092130;28;20033;-78
2021/08/28 11:21:08;;;;;;;0.90;0.90;;;19.00;99.90;;;;;;5055289;28;20040;-77
2021/08/28 11:23:40;;;;;;;2.38;0.98;;;18.20;99.90;;;;;;5055022;28;20068;-77
2021/08/28 11:26:05;;;;;;;1.13;1.02;;;18.10;99.90;;;;;;5056115;28;20548;-78
2021/08/28 11:28:42;;;;;;;0.85;0.85;;;18.10;99.90;;;;;;5056972;28;20040;-79
2021/08/28 11:31:09;;;;;;;1.85;0.80;;;17.90;99.90;;;;;;5048102;28;20053;-79
2021/08/28 11:33:37;;;;;;;1.05;0.90;;;17.80;99.90;;;;;;5056047;28;20021;-78
2021/08/28 11:36:19;;;;;;;0.60;0.60;;;17.90;99.90;;;;;;5055891;28;20030;-78
2021/08/28 11:38:53;;;;;;;0.77;0.77;;;18.20;99.90;;;;;;5054397;28;20029;-76
2021/08/28 11:41:23;;;;;;;1.13;0.60;;;18.90;99.90;;;;;;5055970;28;20041;-78
2021/08/28 11:43:50;;;;;;;1.00;0.90;;;19.20;99.90;;;;;;5055266;28;20496;-78
2021/08/28 11:46:24;;;;;;;1.67;0.90;;;18.70;99.90;;;;;;5052058;28;20044;-78
2021/08/28 11:48:50;;;;;;;0.60;0.60;;;18.40;99.90;;;;;;5088030;28;20396;-79
2021/08/28 11:51:19;;;;;;;0.45;0.45;;;18.50;99.90;;;;;;5057512;28;20032;-79
2021/08/28 11:53:46;;;;;;;0.50;0.50;;;18.30;99.90;;;;;;5056221;28;20039;-79
2021/08/28 11:56:15;;;;;;;0.60;0.60;;;18.60;99.90;;;;;;5056145;28;20021;-81
2021/08/28 11:58:47;;;;;;;0.60;0.60;;;18.50;99.90;;;;;;5056415;28;20054;-78
2021/08/28 12:01:30;;;;;;;0.60;0.45;;;18.40;99.90;;;;;;5063365;28;20025;-77
2021/08/28 12:03:58;;;;;;;0.52;0.52;;;18.90;99.90;;;;;;5054385;28;20025;-80
2021/08/28 12:06:28;;;;;;;0.43;0.43;;;19.10;99.90;;;;;;5079457;28;20039;-78
2021/08/28 12:08:54;;;;;;;0.60;0.60;;;19.20;99.90;;;;;;5054050;28;20064;-77
2021/08/28 12:11:21;;;;;;;0.70;0.70;;;19.20;99.90;;;;;;5053962;28;20090;-78
2021/08/28 12:13:52;;;;;;;0.50;0.50;;;19.20;99.90;;;;;;5055623;28;20021;-75
2021/08/28 12:16:32;;;;;;;0.60;0.50;;;19.30;99.90;;;;;;5053665;28;20089;-77
2021/08/28 12:19:08;;;;;;;0.60;0.60;;;19.00;99.90;;;;;;5054048;28;20041;-76
2021/08/28 12:21:39;;;;;;;0.75;0.50;;;19.00;99.90;;;;;;5054671;28;20025;-76
2021/08/28 12:24:12;;;;;;;0.55;0.55;;;19.50;99.90;;;;;;5053896;28;20484;-76
2021/08/28 12:26:38;;;;;;;1.17;0.50;;;19.50;99.90;;;;;;5053957;28;20025;-76
2021/08/28 12:29:04;;;;;;;0.60;0.50;;;19.80;99.90;;;;;;5053376;28;20025;-77
2021/08/28 12:31:34;;;;;;;0.52;0.52;;;19.20;99.90;;;;;;5052988;28;20028;-78
2021/08/28 12:34:04;;;;;;;0.40;0.40;;;19.00;99.90;;;;;;5053129;28;20021;-77
2021/08/28 12:36:32;;;;;;;0.50;0.50;;;18.80;99.90;;;;;;5086791;28;20036;-76
2021/08/28 12:39:04;;;;;;;0.40;0.40;;;18.60;99.90;;;;;;5053616;28;20048;-78
2021/08/28 12:41:30;;;;;;;1.02;0.60;;;18.60;99.90;;;;;;5053986;28;20035;-74
2021/08/28 12:43:56;;;;;;;1.15;0.73;;;18.80;99.90;;;;;;5046216;28;20096;-78